sensor_id;sensor_type;location;lat;lon;timestamp;pressure;altitude;pressure_sealevel;temperature;humidity
7182;BME280;3632;42.724;23.298;2024-02-21T00:01:21;96050.97;;;7.25;96.77
7182;BME280;3632;42.724;23.298;2024-02-21T00:03:48;96057.53;;;7.29;95.81
7182;BME280;3632;42.724;23.298;2024-02-21T00:06:15;96053.41;;;7.26;96.14
7182;BME280;3632;42.724;23.298;2024-02-21T00:08:43;96059.47;;;7.24;96.89
7182;BME280;3632;42.724;23.298;2024-02-21T00:11:10;96055.06;;;7.27;96.64
7182;BME280;3632;42.724;23.298;2024-02-21T00:13:37;96051.06;;;7.23;95.50
7182;BME280;3632;42.724;23.298;2024-02-21T00:16:04;96052.69;;;7.24;95.91
7182;BME280;3632;42.724;23.298;2024-02-21T00:18:31;96055.00;;;7.29;96.29
7182;BME280;3632;42.724;23.298;2024-02-21T00:20:57;95978.69;;;6.86;95.32
7182;BME280;3632;42.724;23.298;2024-02-21T00:23:23;96040.38;;;7.34;95.37
7182;BME280;3632;42.724;23.298;2024-02-21T00:25:51;95929.38;;;6.61;96.13
7182;BME280;3632;42.724;23.298;2024-02-21T00:28:18;95934.34;;;6.14;95.32
7182;BME280;3632;42.724;23.298;2024-02-21T00:30:45;96047.47;;;7.27;95.07
7182;BME280;3632;42.724;23.298;2024-02-21T00:33:13;96041.56;;;7.27;96.00
7182;BME280;3632;42.724;23.298;2024-02-21T00:35:40;96045.00;;;7.26;96.93
7182;BME280;3632;42.724;23.298;2024-02-21T00:38:07;95988.06;;;7.00;96.20
7182;BME280;3632;42.724;23.298;2024-02-21T00:40:34;96047.38;;;7.29;95.37
7182;BME280;3632;42.724;23.298;2024-02-21T00:43:03;96034.72;;;7.29;95.61
7182;BME280;3632;42.724;23.298;2024-02-21T00:45:29;96037.50;;;7.24;95.34
7182;BME280;3632;42.724;23.298;2024-02-21T00:47:55;96040.91;;;7.23;95.17
7182;BME280;3632;42.724;23.298;2024-02-21T00:50:22;96039.50;;;7.18;95.34
7182;BME280;3632;42.724;23.298;2024-02-21T00:52:49;95846.41;;;5.84;95.36
7182;BME280;3632;42.724;23.298;2024-02-21T00:55:15;96031.66;;;7.07;95.64
7182;BME280;3632;42.724;23.298;2024-02-21T00:57:42;96034.03;;;7.10;95.93
7182;BME280;3632;42.724;23.298;2024-02-21T01:00:11;96059.16;;;6.49;97.07
7182;BME280;3632;42.724;23.298;2024-02-21T01:02:38;96028.63;;;7.00;97.05
7182;BME280;3632;42.724;23.298;2024-02-21T01:05:05;96021.34;;;6.94;97.21
7182;BME280;3632;42.724;23.298;2024-02-21T01:07:32;95973.44;;;6.74;96.94
7182;BME280;3632;42.724;23.298;2024-02-21T01:09:59;96010.22;;;6.97;97.15
7182;BME280;3632;42.724;23.298;2024-02-21T01:12:26;96019.00;;;7.07;96.89
7182;BME280;3632;42.724;23.298;2024-02-21T01:14:52;95919.50;;;6.23;96.67
7182;BME280;3632;42.724;23.298;2024-02-21T01:17:20;96009.19;;;7.16;96.58
7182;BME280;3632;42.724;23.298;2024-02-21T01:19:47;96014.03;;;7.21;96.75
7182;BME280;3632;42.724;23.298;2024-02-21T01:22:14;95912.47;;;6.61;96.23
7182;BME280;3632;42.724;23.298;2024-02-21T01:24:41;96006.72;;;7.30;96.40
7182;BME280;3632;42.724;23.298;2024-02-21T01:27:08;96009.13;;;7.33;95.92
7182;BME280;3632;42.724;23.298;2024-02-21T01:29:34;95983.38;;;6.61;95.02
7182;BME280;3632;42.724;23.298;2024-02-21T01:32:01;96020.97;;;7.33;95.06
7182;BME280;3632;42.724;23.298;2024-02-21T01:34:29;96005.75;;;7.33;95.43
7182;BME280;3632;42.724;23.298;2024-02-21T01:36:56;95810.91;;;6.19;95.28
7182;BME280;3632;42.724;23.298;2024-02-21T01:39:23;95986.94;;;7.37;95.55
7182;BME280;3632;42.724;23.298;2024-02-21T01:41:49;95912.94;;;6.83;94.46
7182;BME280;3632;42.724;23.298;2024-02-21T01:44:16;95987.34;;;7.45;94.42
7182;BME280;3632;42.724;23.298;2024-02-21T01:46:54;95921.03;;;7.06;93.91
7182;BME280;3632;42.724;23.298;2024-02-21T01:49:31;95981.38;;;7.46;93.98
7182;BME280;3632;42.724;23.298;2024-02-21T01:51:58;95988.16;;;7.46;93.41
7182;BME280;3632;42.724;23.298;2024-02-21T01:54:25;95850.94;;;6.59;93.37
7182;BME280;3632;42.724;23.298;2024-02-21T01:56:54;95517.50;;;4.45;92.82
7182;BME280;3632;42.724;23.298;2024-02-21T01:59:21;95960.84;;;7.35;92.27
7182;BME280;3632;42.724;23.298;2024-02-21T02:01:48;95984.03;;;7.43;92.83
7182;BME280;3632;42.724;23.298;2024-02-21T02:04:15;95982.59;;;7.39;92.15
7182;BME280;3632;42.724;23.298;2024-02-21T02:06:43;95987.50;;;7.26;92.57
7182;BME280;3632;42.724;23.298;2024-02-21T02:09:10;95987.75;;;7.22;93.14
7182;BME280;3632;42.724;23.298;2024-02-21T02:11:36;95998.72;;;7.22;93.92
7182;BME280;3632;42.724;23.298;2024-02-21T02:14:03;95928.59;;;6.92;92.98
7182;BME280;3632;42.724;23.298;2024-02-21T02:16:30;95927.09;;;6.87;93.51
7182;BME280;3632;42.724;23.298;2024-02-21T02:18:57;95980.13;;;7.22;93.13
7182;BME280;3632;42.724;23.298;2024-02-21T02:21:28;95891.78;;;6.69;93.07
7182;BME280;3632;42.724;23.298;2024-02-21T02:23:57;95930.84;;;6.65;93.84
7182;BME280;3632;42.724;23.298;2024-02-21T02:26:24;95970.00;;;7.22;93.54
7182;BME280;3632;42.724;23.298;2024-02-21T02:28:50;95971.63;;;7.23;93.84
7182;BME280;3632;42.724;23.298;2024-02-21T02:31:17;95892.63;;;6.69;93.38
7182;BME280;3632;42.724;23.298;2024-02-21T02:33:44;95968.00;;;7.13;93.62
7182;BME280;3632;42.724;23.298;2024-02-21T02:36:10;95961.09;;;7.15;94.25
7182;BME280;3632;42.724;23.298;2024-02-21T02:38:37;95965.28;;;7.16;94.11
7182;BME280;3632;42.724;23.298;2024-02-21T02:41:05;95955.47;;;7.25;93.69
7182;BME280;3632;42.724;23.298;2024-02-21T02:43:32;95968.13;;;7.25;92.70
7182;BME280;3632;42.724;23.298;2024-02-21T02:45:59;95971.22;;;7.30;93.54
7182;BME280;3632;42.724;23.298;2024-02-21T02:48:25;95969.44;;;7.32;92.53
7182;BME280;3632;42.724;23.298;2024-02-21T02:50:52;95974.00;;;7.26;93.27
7182;BME280;3632;42.724;23.298;2024-02-21T02:53:19;95881.25;;;6.61;92.75
7182;BME280;3632;42.724;23.298;2024-02-21T02:55:45;95946.63;;;7.17;92.25
7182;BME280;3632;42.724;23.298;2024-02-21T02:58:14;95892.13;;;6.78;92.36
7182;BME280;3632;42.724;23.298;2024-02-21T03:00:40;95968.78;;;7.29;93.14
7182;BME280;3632;42.724;23.298;2024-02-21T03:03:07;95875.94;;;6.65;93.14
7182;BME280;3632;42.724;23.298;2024-02-21T03:05:34;95915.34;;;6.86;93.11
7182;BME280;3632;42.724;23.298;2024-02-21T03:08:01;95958.38;;;7.18;93.02
7182;BME280;3632;42.724;23.298;2024-02-21T03:10:32;95901.09;;;6.84;93.11
7182;BME280;3632;42.724;23.298;2024-02-21T03:12:59;95968.78;;;7.29;92.60
7182;BME280;3632;42.724;23.298;2024-02-21T03:15:27;95969.59;;;7.29;92.54
7182;BME280;3632;42.724;23.298;2024-02-21T03:17:54;95981.59;;;7.26;92.22
7182;BME280;3632;42.724;23.298;2024-02-21T03:20:20;95948.44;;;7.15;92.43
7182;BME280;3632;42.724;23.298;2024-02-21T03:22:47;95979.66;;;7.31;92.04
7182;BME280;3632;42.724;23.298;2024-02-21T03:25:14;95984.81;;;7.29;92.49
7182;BME280;3632;42.724;23.298;2024-02-21T03:27:41;96001.41;;;7.19;92.17
7182;BME280;3632;42.724;23.298;2024-02-21T03:30:09;95801.91;;;6.13;92.37
7182;BME280;3632;42.724;23.298;2024-02-21T03:32:37;95961.84;;;7.17;92.09
7182;BME280;3632;42.724;23.298;2024-02-21T03:35:05;95965.69;;;7.08;91.66
7182;BME280;3632;42.724;23.298;2024-02-21T03:37:31;95987.84;;;7.36;91.33
7182;BME280;3632;42.724;23.298;2024-02-21T03:39:58;95992.97;;;7.34;91.68
7182;BME280;3632;42.724;23.298;2024-02-21T03:42:25;96000.69;;;7.33;91.10
7182;BME280;3632;42.724;23.298;2024-02-21T03:44:55;95997.06;;;7.37;91.58
7182;BME280;3632;42.724;23.298;2024-02-21T03:47:21;95954.88;;;7.05;91.79
7182;BME280;3632;42.724;23.298;2024-02-21T03:49:49;96006.81;;;7.29;91.38
7182;BME280;3632;42.724;23.298;2024-02-21T03:52:16;96008.84;;;7.22;91.67
7182;BME280;3632;42.724;23.298;2024-02-21T03:54:43;95918.59;;;6.73;90.92
7182;BME280;3632;42.724;23.298;2024-02-21T03:57:10;95900.22;;;6.69;90.69
7182;BME280;3632;42.724;23.298;2024-02-21T03:59:36;96008.75;;;7.40;90.46
7182;BME280;3632;42.724;23.298;2024-02-21T04:02:05;95853.47;;;6.43;89.70
7182;BME280;3632;42.724;23.298;2024-02-21T04:04:34;96004.50;;;7.40;89.61
7182;BME280;3632;42.724;23.298;2024-02-21T04:07:04;95931.00;;;6.93;89.81
7182;BME280;3632;42.724;23.298;2024-02-21T04:09:32;96000.81;;;7.30;90.37
7182;BME280;3632;42.724;23.298;2024-02-21T04:11:59;95957.06;;;6.48;89.66
7182;BME280;3632;42.724;23.298;2024-02-21T04:14:26;95992.50;;;7.28;89.65
7182;BME280;3632;42.724;23.298;2024-02-21T04:16:53;96002.00;;;7.24;89.79
7182;BME280;3632;42.724;23.298;2024-02-21T04:19:19;96004.94;;;7.17;90.68
7182;BME280;3632;42.724;23.298;2024-02-21T04:21:46;96001.00;;;7.11;91.53
7182;BME280;3632;42.724;23.298;2024-02-21T04:24:14;95996.66;;;7.13;90.83
7182;BME280;3632;42.724;23.298;2024-02-21T04:26:41;95999.06;;;7.16;91.08
7182;BME280;3632;42.724;23.298;2024-02-21T04:29:09;95997.47;;;7.14;90.62
7182;BME280;3632;42.724;23.298;2024-02-21T04:31:36;95998.88;;;7.19;90.70
7182;BME280;3632;42.724;23.298;2024-02-21T04:34:03;95999.88;;;7.17;90.77
7182;BME280;3632;42.724;23.298;2024-02-21T04:36:29;95999.38;;;7.10;90.42
7182;BME280;3632;42.724;23.298;2024-02-21T04:38:56;95809.72;;;5.43;90.98
7182;BME280;3632;42.724;23.298;2024-02-21T04:41:24;96020.63;;;7.08;90.65
7182;BME280;3632;42.724;23.298;2024-02-21T04:43:51;96001.72;;;6.98;91.44
7182;BME280;3632;42.724;23.298;2024-02-21T04:46:18;95998.88;;;7.04;91.84
7182;BME280;3632;42.724;23.298;2024-02-21T04:48:45;96005.56;;;7.05;91.69
7182;BME280;3632;42.724;23.298;2024-02-21T04:51:12;96006.63;;;7.01;91.73
7182;BME280;3632;42.724;23.298;2024-02-21T04:53:39;95941.28;;;6.59;91.97
7182;BME280;3632;42.724;23.298;2024-02-21T04:56:06;96026.19;;;6.99;92.97
7182;BME280;3632;42.724;23.298;2024-02-21T04:58:37;96004.44;;;6.95;92.92
7182;BME280;3632;42.724;23.298;2024-02-21T05:01:04;96005.91;;;6.99;92.58
7182;BME280;3632;42.724;23.298;2024-02-21T05:03:31;95992.16;;;6.87;93.27
7182;BME280;3632;42.724;23.298;2024-02-21T05:05:58;95924.91;;;6.33;93.01
7182;BME280;3632;42.724;23.298;2024-02-21T05:08:25;95913.34;;;6.45;93.72
7182;BME280;3632;42.724;23.298;2024-02-21T05:10:52;96013.09;;;6.91;94.12
7182;BME280;3632;42.724;23.298;2024-02-21T05:13:19;96008.34;;;6.84;94.53
7182;BME280;3632;42.724;23.298;2024-02-21T05:15:47;96014.88;;;6.88;94.91
7182;BME280;3632;42.724;23.298;2024-02-21T05:18:14;96020.19;;;6.84;95.18
7182;BME280;3632;42.724;23.298;2024-02-21T05:20:40;96014.44;;;6.65;96.36
7182;BME280;3632;42.724;23.298;2024-02-21T05:23:07;95934.31;;;6.31;95.53
7182;BME280;3632;42.724;23.298;2024-02-21T05:25:34;95668.97;;;4.60;94.96
7182;BME280;3632;42.724;23.298;2024-02-21T05:28:00;96017.81;;;6.97;94.36
7182;BME280;3632;42.724;23.298;2024-02-21T05:30:28;95899.56;;;6.17;93.97
7182;BME280;3632;42.724;23.298;2024-02-21T05:32:57;96021.28;;;6.96;93.60
7182;BME280;3632;42.724;23.298;2024-02-21T05:35:26;96021.09;;;6.99;93.80
7182;BME280;3632;42.724;23.298;2024-02-21T05:37:54;95999.38;;;6.95;93.85
7182;BME280;3632;42.724;23.298;2024-02-21T05:40:20;95928.59;;;6.43;94.08
7182;BME280;3632;42.724;23.298;2024-02-21T05:42:47;96014.56;;;7.10;93.47
7182;BME280;3632;42.724;23.298;2024-02-21T05:45:14;95982.16;;;6.84;93.61
7182;BME280;3632;42.724;23.298;2024-02-21T05:47:41;96016.44;;;7.07;94.19
7182;BME280;3632;42.724;23.298;2024-02-21T05:50:09;95998.47;;;6.96;92.70
7182;BME280;3632;42.724;23.298;2024-02-21T05:52:36;96026.13;;;7.16;92.52
7182;BME280;3632;42.724;23.298;2024-02-21T05:55:04;96020.16;;;7.17;91.86
7182;BME280;3632;42.724;23.298;2024-02-21T05:57:30;96007.22;;;7.06;92.71
7182;BME280;3632;42.724;23.298;2024-02-21T05:59:57;96041.50;;;7.13;92.46
7182;BME280;3632;42.724;23.298;2024-02-21T06:02:24;95977.56;;;6.75;92.89
7182;BME280;3632;42.724;23.298;2024-02-21T06:04:50;95666.22;;;4.82;92.75
7182;BME280;3632;42.724;23.298;2024-02-21T06:07:18;96031.66;;;7.22;92.76
7182;BME280;3632;42.724;23.298;2024-02-21T06:09:45;96035.44;;;7.31;91.69
7182;BME280;3632;42.724;23.298;2024-02-21T06:12:12;95998.47;;;7.11;90.42
7182;BME280;3632;42.724;23.298;2024-02-21T06:14:39;95953.66;;;6.80;88.51
7182;BME280;3632;42.724;23.298;2024-02-21T06:17:05;95522.69;;;4.25;89.20
7182;BME280;3632;42.724;23.298;2024-02-21T06:19:32;96046.66;;;7.58;87.67
7182;BME280;3632;42.724;23.298;2024-02-21T06:21:59;95770.72;;;5.97;86.70
7182;BME280;3632;42.724;23.298;2024-02-21T06:24:27;96041.28;;;7.78;86.12
7182;BME280;3632;42.724;23.298;2024-02-21T06:26:53;96130.09;;;7.47;86.98
7182;BME280;3632;42.724;23.298;2024-02-21T06:29:20;95986.13;;;7.21;87.27
7182;BME280;3632;42.724;23.298;2024-02-21T06:31:47;96064.84;;;7.02;89.35
7182;BME280;3632;42.724;23.298;2024-02-21T06:34:14;96023.72;;;6.31;92.60
7182;BME280;3632;42.724;23.298;2024-02-21T06:36:41;95957.84;;;5.64;97.04
7182;BME280;3632;42.724;23.298;2024-02-21T06:39:08;96079.19;;;6.53;97.64
7182;BME280;3632;42.724;23.298;2024-02-21T06:41:38;96071.69;;;6.67;97.81
7182;BME280;3632;42.724;23.298;2024-02-21T06:44:05;96074.22;;;6.84;95.38
7182;BME280;3632;42.724;23.298;2024-02-21T06:46:32;96005.19;;;6.14;94.20
7182;BME280;3632;42.724;23.298;2024-02-21T06:48:59;96075.03;;;6.35;96.05
7182;BME280;3632;42.724;23.298;2024-02-21T06:51:26;95849.56;;;5.03;98.19
7182;BME280;3632;42.724;23.298;2024-02-21T06:53:54;95749.34;;;4.34;100.00
7182;BME280;3632;42.724;23.298;2024-02-21T06:56:23;96073.75;;;7.09;99.28
7182;BME280;3632;42.724;23.298;2024-02-21T06:58:53;96073.47;;;6.82;95.10
7182;BME280;3632;42.724;23.298;2024-02-21T07:01:20;96075.13;;;6.66;97.49
7182;BME280;3632;42.724;23.298;2024-02-21T07:03:47;96078.03;;;6.59;99.30
7182;BME280;3632;42.724;23.298;2024-02-21T07:06:13;96079.97;;;6.71;100.00
7182;BME280;3632;42.724;23.298;2024-02-21T07:08:41;95598.59;;;3.86;97.89
7182;BME280;3632;42.724;23.298;2024-02-21T07:11:13;95872.72;;;6.15;94.71
7182;BME280;3632;42.724;23.298;2024-02-21T07:13:40;96118.34;;;7.13;92.99
7182;BME280;3632;42.724;23.298;2024-02-21T07:16:08;96094.47;;;6.84;95.39
7182;BME280;3632;42.724;23.298;2024-02-21T07:18:35;95519.41;;;3.37;98.37
7182;BME280;3632;42.724;23.298;2024-02-21T07:21:01;95881.06;;;5.31;97.26
7182;BME280;3632;42.724;23.298;2024-02-21T07:23:28;96086.16;;;7.31;95.83
7182;BME280;3632;42.724;23.298;2024-02-21T07:25:55;96078.44;;;7.95;96.97
7182;BME280;3632;42.724;23.298;2024-02-21T07:28:22;96086.91;;;7.49;90.33
7182;BME280;3632;42.724;23.298;2024-02-21T07:30:48;96088.44;;;7.20;93.36
7182;BME280;3632;42.724;23.298;2024-02-21T07:33:16;96093.22;;;7.09;96.72
7182;BME280;3632;42.724;23.298;2024-02-21T07:35:43;96084.72;;;7.10;95.25
7182;BME280;3632;42.724;23.298;2024-02-21T07:38:10;96093.44;;;7.53;94.71
7182;BME280;3632;42.724;23.298;2024-02-21T07:40:37;96090.13;;;7.98;90.70
7182;BME280;3632;42.724;23.298;2024-02-21T07:43:04;96083.81;;;7.59;89.72
7182;BME280;3632;42.724;23.298;2024-02-21T07:45:31;95929.25;;;6.31;92.39
7182;BME280;3632;42.724;23.298;2024-02-21T07:47:58;96089.38;;;7.17;98.00
7182;BME280;3632;42.724;23.298;2024-02-21T07:50:26;96089.75;;;6.78;97.85
7182;BME280;3632;42.724;23.298;2024-02-21T07:52:53;96085.69;;;7.71;96.39
7182;BME280;3632;42.724;23.298;2024-02-21T07:55:19;96077.97;;;8.34;92.36
7182;BME280;3632;42.724;23.298;2024-02-21T07:57:46;96074.31;;;8.08;88.27
7182;BME280;3632;42.724;23.298;2024-02-21T08:00:13;96082.31;;;7.71;90.90
7182;BME280;3632;42.724;23.298;2024-02-21T08:02:45;96077.09;;;7.58;95.77
7182;BME280;3632;42.724;23.298;2024-02-21T08:05:12;96079.63;;;7.58;96.67
7182;BME280;3632;42.724;23.298;2024-02-21T08:07:40;95958.06;;;7.24;96.70
7182;BME280;3632;42.724;23.298;2024-02-21T08:10:07;96074.75;;;8.60;91.49
7182;BME280;3632;42.724;23.298;2024-02-21T08:12:34;96071.09;;;9.90;100.00
7182;BME280;3632;42.724;23.298;2024-02-21T08:15:02;96076.28;;;10.55;86.23
7182;BME280;3632;42.724;23.298;2024-02-21T08:17:29;96081.84;;;10.08;81.63
7182;BME280;3632;42.724;23.298;2024-02-21T08:19:56;96080.00;;;10.10;83.06
7182;BME280;3632;42.724;23.298;2024-02-21T08:22:23;95901.16;;;9.01;82.32
7182;BME280;3632;42.724;23.298;2024-02-21T08:24:51;96040.88;;;9.72;81.96
7182;BME280;3632;42.724;23.298;2024-02-21T08:27:18;95990.69;;;10.13;78.96
7182;BME280;3632;42.724;23.298;2024-02-21T08:29:44;96070.47;;;10.66;77.56
7182;BME280;3632;42.724;23.298;2024-02-21T08:32:12;96067.41;;;9.68;80.39
7182;BME280;3632;42.724;23.298;2024-02-21T08:34:38;96069.91;;;9.55;83.20
7182;BME280;3632;42.724;23.298;2024-02-21T08:37:05;96069.09;;;10.08;80.21
7182;BME280;3632;42.724;23.298;2024-02-21T08:39:33;96070.31;;;10.29;77.00
7182;BME280;3632;42.724;23.298;2024-02-21T08:42:01;96065.03;;;10.45;75.46
7182;BME280;3632;42.724;23.298;2024-02-21T08:44:28;96072.28;;;10.51;74.08
7182;BME280;3632;42.724;23.298;2024-02-21T08:46:55;96066.66;;;10.46;75.24
7182;BME280;3632;42.724;23.298;2024-02-21T08:49:22;96071.19;;;10.68;74.67
7182;BME280;3632;42.724;23.298;2024-02-21T08:51:51;96067.81;;;10.54;73.46
7182;BME280;3632;42.724;23.298;2024-02-21T08:54:18;96065.66;;;10.48;74.28
7182;BME280;3632;42.724;23.298;2024-02-21T08:56:45;95993.59;;;9.94;74.33
7182;BME280;3632;42.724;23.298;2024-02-21T08:59:13;96072.25;;;10.26;75.37
7182;BME280;3632;42.724;23.298;2024-02-21T09:01:42;96081.47;;;10.14;73.86
7182;BME280;3632;42.724;23.298;2024-02-21T09:04:08;96076.31;;;10.01;74.22
7182;BME280;3632;42.724;23.298;2024-02-21T09:06:35;96077.31;;;9.99;75.31
7182;BME280;3632;42.724;23.298;2024-02-21T09:09:04;96087.53;;;9.85;74.96
7182;BME280;3632;42.724;23.298;2024-02-21T09:11:33;96080.84;;;9.84;75.35
7182;BME280;3632;42.724;23.298;2024-02-21T09:14:00;95907.41;;;8.54;75.30
7182;BME280;3632;42.724;23.298;2024-02-21T09:16:30;96077.25;;;9.59;75.25
7182;BME280;3632;42.724;23.298;2024-02-21T09:18:57;96073.59;;;9.63;75.73
7182;BME280;3632;42.724;23.298;2024-02-21T09:21:24;96020.91;;;9.25;75.56
7182;BME280;3632;42.724;23.298;2024-02-21T09:23:51;96084.50;;;9.80;75.70
7182;BME280;3632;42.724;23.298;2024-02-21T09:26:17;96071.47;;;9.84;75.03
7182;BME280;3632;42.724;23.298;2024-02-21T09:28:44;96068.81;;;9.86;75.31
7182;BME280;3632;42.724;23.298;2024-02-21T09:31:11;95810.88;;;8.54;74.12
7182;BME280;3632;42.724;23.298;2024-02-21T09:33:39;96071.75;;;10.33;74.68
7182;BME280;3632;42.724;23.298;2024-02-21T09:36:06;96064.44;;;10.54;73.01
7182;BME280;3632;42.724;23.298;2024-02-21T09:38:33;95767.00;;;8.24;73.94
7182;BME280;3632;42.724;23.298;2024-02-21T09:41:06;96072.31;;;11.02;72.74
7182;BME280;3632;42.724;23.298;2024-02-21T09:43:37;96088.22;;;11.67;68.36
7182;BME280;3632;42.724;23.298;2024-02-21T09:46:07;95925.06;;;11.04;65.86
7182;BME280;3632;42.724;23.298;2024-02-21T09:48:52;96016.22;;;11.74;65.83
7182;BME280;3632;42.724;23.298;2024-02-21T09:51:26;96061.47;;;12.66;64.38
7182;BME280;3632;42.724;23.298;2024-02-21T09:53:56;96051.84;;;13.58;60.89
7182;BME280;3632;42.724;23.298;2024-02-21T09:56:24;96050.16;;;13.25;58.58
7182;BME280;3632;42.724;23.298;2024-02-21T09:58:51;96054.47;;;13.79;59.17
7182;BME280;3632;42.724;23.298;2024-02-21T10:01:17;96045.63;;;14.15;57.02
7182;BME280;3632;42.724;23.298;2024-02-21T10:03:45;96049.88;;;14.37;58.46
7182;BME280;3632;42.724;23.298;2024-02-21T10:06:12;96051.88;;;14.95;55.51
7182;BME280;3632;42.724;23.298;2024-02-21T10:08:39;96040.78;;;15.25;53.95
7182;BME280;3632;42.724;23.298;2024-02-21T10:11:06;95869.41;;;13.66;54.44
7182;BME280;3632;42.724;23.298;2024-02-21T10:13:35;96035.50;;;14.66;55.08
7182;BME280;3632;42.724;23.298;2024-02-21T10:16:04;96044.75;;;14.78;55.45
7182;BME280;3632;42.724;23.298;2024-02-21T10:18:31;95992.91;;;14.54;52.90
7182;BME280;3632;42.724;23.298;2024-02-21T10:21:04;96023.84;;;15.13;51.13
7182;BME280;3632;42.724;23.298;2024-02-21T10:23:41;96019.47;;;15.93;49.26
7182;BME280;3632;42.724;23.298;2024-02-21T10:26:09;96012.84;;;16.20;48.96
7182;BME280;3632;42.724;23.298;2024-02-21T10:28:36;96009.34;;;16.86;47.15
7182;BME280;3632;42.724;23.298;2024-02-21T10:31:07;96010.16;;;17.51;45.88
7182;BME280;3632;42.724;23.298;2024-02-21T10:33:34;95994.16;;;17.93;45.03
7182;BME280;3632;42.724;23.298;2024-02-21T10:36:09;95851.81;;;17.36;44.49
7182;BME280;3632;42.724;23.298;2024-02-21T10:38:37;95958.84;;;18.54;43.13
7182;BME280;3632;42.724;23.298;2024-02-21T10:41:04;95574.78;;;15.47;42.11
7182;BME280;3632;42.724;23.298;2024-02-21T10:43:37;95977.47;;;16.51;44.69
7182;BME280;3632;42.724;23.298;2024-02-21T10:46:06;95977.94;;;16.83;45.82
7182;BME280;3632;42.724;23.298;2024-02-21T10:48:41;95951.72;;;17.24;44.72
7182;BME280;3632;42.724;23.298;2024-02-21T10:51:14;95955.41;;;17.85;43.39
7182;BME280;3632;42.724;23.298;2024-02-21T10:53:45;95940.63;;;17.14;43.72
7182;BME280;3632;42.724;23.298;2024-02-21T10:56:26;95988.59;;;16.32;44.86
7182;BME280;3632;42.724;23.298;2024-02-21T10:58:53;95946.84;;;16.38;44.16
7182;BME280;3632;42.724;23.298;2024-02-21T11:01:21;95897.41;;;16.63;42.17
7182;BME280;3632;42.724;23.298;2024-02-21T11:03:52;95936.41;;;17.41;40.80
7182;BME280;3632;42.724;23.298;2024-02-21T11:06:22;95934.00;;;18.10;40.82
7182;BME280;3632;42.724;23.298;2024-02-21T11:09:00;95883.59;;;18.15;39.57
7182;BME280;3632;42.724;23.298;2024-02-21T11:11:28;95959.25;;;18.93;38.13
7182;BME280;3632;42.724;23.298;2024-02-21T11:14:04;95914.81;;;19.32;37.52
7182;BME280;3632;42.724;23.298;2024-02-21T11:16:35;95916.34;;;19.50;37.53
7182;BME280;3632;42.724;23.298;2024-02-21T11:19:10;95913.69;;;19.26;37.93
7182;BME280;3632;42.724;23.298;2024-02-21T11:21:46;95916.91;;;19.36;37.84
7182;BME280;3632;42.724;23.298;2024-02-21T11:24:13;95921.31;;;17.91;39.99
7182;BME280;3632;42.724;23.298;2024-02-21T11:26:40;95922.13;;;16.74;42.37
7182;BME280;3632;42.724;23.298;2024-02-21T11:29:09;95926.59;;;15.48;43.92
7182;BME280;3632;42.724;23.298;2024-02-21T11:31:40;95913.31;;;15.15;45.60
7182;BME280;3632;42.724;23.298;2024-02-21T11:34:10;95919.34;;;14.64;46.55
7182;BME280;3632;42.724;23.298;2024-02-21T11:36:47;95922.94;;;14.31;47.29
7182;BME280;3632;42.724;23.298;2024-02-21T11:39:22;95871.25;;;13.64;47.58
7182;BME280;3632;42.724;23.298;2024-02-21T11:42:01;95921.41;;;13.66;48.25
7182;BME280;3632;42.724;23.298;2024-02-21T11:44:29;95915.34;;;13.47;49.01
7182;BME280;3632;42.724;23.298;2024-02-21T11:46:55;95924.66;;;13.37;49.40
7182;BME280;3632;42.724;23.298;2024-02-21T11:49:24;95937.41;;;12.82;50.30
7182;BME280;3632;42.724;23.298;2024-02-21T11:51:59;95910.47;;;12.67;51.32
7182;BME280;3632;42.724;23.298;2024-02-21T11:54:27;95473.16;;;9.73;51.40
7182;BME280;3632;42.724;23.298;2024-02-21T11:56:57;95885.72;;;12.46;51.78
7182;BME280;3632;42.724;23.298;2024-02-21T11:59:32;95899.19;;;12.48;52.03
7182;BME280;3632;42.724;23.298;2024-02-21T12:02:00;95843.28;;;12.10;52.54
7182;BME280;3632;42.724;23.298;2024-02-21T12:04:28;95815.84;;;11.32;52.02
7182;BME280;3632;42.724;23.298;2024-02-21T12:07:00;95847.09;;;11.82;52.82
7182;BME280;3632;42.724;23.298;2024-02-21T12:09:29;95897.09;;;12.19;52.81
7182;BME280;3632;42.724;23.298;2024-02-21T12:12:00;95896.50;;;12.27;53.29
7182;BME280;3632;42.724;23.298;2024-02-21T12:14:29;95893.59;;;12.09;53.65
7182;BME280;3632;42.724;23.298;2024-02-21T12:16:56;95858.69;;;11.75;53.03
7182;BME280;3632;42.724;23.298;2024-02-21T12:19:23;95891.59;;;11.32;52.95
7182;BME280;3632;42.724;23.298;2024-02-21T12:21:50;95897.75;;;11.88;53.32
7182;BME280;3632;42.724;23.298;2024-02-21T12:24:21;95873.69;;;11.79;53.53
7182;BME280;3632;42.724;23.298;2024-02-21T12:26:48;95882.09;;;12.04;53.11
7182;BME280;3632;42.724;23.298;2024-02-21T12:29:15;95889.41;;;12.08;52.99
7182;BME280;3632;42.724;23.298;2024-02-21T12:31:42;95879.19;;;12.19;53.00
7182;BME280;3632;42.724;23.298;2024-02-21T12:34:08;95838.72;;;11.80;53.54
7182;BME280;3632;42.724;23.298;2024-02-21T12:36:36;95881.50;;;12.11;55.44
7182;BME280;3632;42.724;23.298;2024-02-21T12:39:07;95862.00;;;11.99;56.61
7182;BME280;3632;42.724;23.298;2024-02-21T12:41:36;95880.34;;;12.15;56.79
7182;BME280;3632;42.724;23.298;2024-02-21T12:44:03;95828.47;;;11.69;57.51
7182;BME280;3632;42.724;23.298;2024-02-21T12:46:32;95880.34;;;12.04;59.01
7182;BME280;3632;42.724;23.298;2024-02-21T12:48:59;95784.75;;;11.38;59.18
7182;BME280;3632;42.724;23.298;2024-02-21T12:51:26;95883.94;;;12.02;60.05
7182;BME280;3632;42.724;23.298;2024-02-21T12:53:52;95883.59;;;12.06;60.23
7182;BME280;3632;42.724;23.298;2024-02-21T12:56:19;95751.44;;;11.18;59.15
7182;BME280;3632;42.724;23.298;2024-02-21T12:58:47;95896.59;;;11.92;59.37
7182;BME280;3632;42.724;23.298;2024-02-21T13:01:14;95875.44;;;12.01;59.25
7182;BME280;3632;42.724;23.298;2024-02-21T13:03:41;95873.94;;;12.10;59.32
7182;BME280;3632;42.724;23.298;2024-02-21T13:06:08;95727.47;;;11.31;58.75
7182;BME280;3632;42.724;23.298;2024-02-21T13:08:36;95869.69;;;12.21;59.57
7182;BME280;3632;42.724;23.298;2024-02-21T13:11:03;95865.25;;;12.23;59.92
7182;BME280;3632;42.724;23.298;2024-02-21T13:13:30;95820.41;;;12.19;59.72
7182;BME280;3632;42.724;23.298;2024-02-21T13:15:59;95866.56;;;12.51;58.74
7182;BME280;3632;42.724;23.298;2024-02-21T13:18:26;95772.56;;;12.10;57.77
7182;BME280;3632;42.724;23.298;2024-02-21T13:20:52;95861.78;;;12.35;56.32